Time;durP1;ratioP1;P1;durP2;ratioP2;P2;SDS_P1;SDS_P2;PMS_P1;PMS_P2;Temp;Humidity;BMP_temperature;BMP_pressure;BME280_temperature;BME280_humidity;BME280_pressure;Samples;Min_cycle;Max_cycle;Signal;HPM_P1;HPM_P2
2021/03/15 00:03:25;;;;;;;40.33;19.23;;;;;;;1.27;72.67;97791.89;508032;1101;104348;-41
2021/03/15 00:13:36;;;;;;;35.10;16.10;;;;;;;1.19;73.11;97805.87;508110;1102;104376;-41
2021/03/15 00:23:41;;;;;;;34.17;16.37;;;;;;;1.13;72.81;97799.59;508019;1101;104373;-42
2021/03/15 00:33:46;;;;;;;25.57;13.80;;;;;;;1.19;72.87;97803.27;508345;1102;104309;-40
2021/03/15 00:43:56;;;;;;;38.57;18.47;;;;;;;1.24;73.07;97806.09;507962;1102;104334;-42
2021/03/15 00:54:00;;;;;;;38.10;19.45;;;;;;;1.30;73.54;97807.13;508182;1102;104338;-42
2021/03/15 01:04:07;;;;;;;38.70;20.43;;;;;;;1.14;73.72;97784.78;508078;1102;104348;-42
2021/03/15 01:14:17;;;;;;;34.35;17.65;;;;;;;1.16;73.48;97780.98;507973;1102;104383;-41
2021/03/15 01:24:22;;;;;;;37.17;19.37;;;;;;;1.42;73.52;97769.95;508094;1102;104338;-41
2021/03/15 01:34:27;;;;;;;20.53;13.17;;;;;;;1.45;73.99;97773.97;508114;1102;104335;-41
2021/03/15 01:44:41;;;;;;;23.90;13.35;;;;;;;1.65;74.23;97754.00;508006;1101;104673;-42
2021/03/15 01:54:46;;;;;;;31.07;16.70;;;;;;;1.70;74.78;97749.03;507934;1102;104334;-40
2021/03/15 02:04:51;;;;;;;73.33;32.27;;;;;;;1.72;73.93;97731.40;507898;1101;104333;-43
2021/03/15 02:15:07;;;;;;;24.13;11.97;;;;;;;1.75;74.46;97743.23;507933;1102;104258;-42
2021/03/15 02:25:52;;;;;;;20.97;12.40;;;;;;;1.81;74.72;97735.42;508031;1101;104335;-44
2021/03/15 02:35:57;;;;;;;17.13;10.93;;;;;;;1.99;73.99;97740.10;508021;1102;104383;-41
2021/03/15 02:46:03;;;;;;;38.37;20.70;;;;;;;2.00;74.91;97726.06;509080;1093;104729;-40
2021/03/15 02:56:09;;;;;;;26.20;14.20;;;;;;;1.76;74.60;97740.43;507901;1101;104357;-41
2021/03/15 03:06:17;;;;;;;20.30;12.97;;;;;;;1.61;74.36;97744.97;507953;1101;104674;-41
2021/03/15 03:16:26;;;;;;;25.97;14.93;;;;;;;1.46;74.67;97737.30;507990;1101;104394;-40
2021/03/15 03:26:32;;;;;;;30.67;14.50;;;;;;;1.28;74.01;97755.23;508132;1102;104728;-40
2021/03/15 03:36:37;;;;;;;39.27;21.47;;;;;;;1.07;74.94;97757.91;508003;1101;104300;-41
2021/03/15 03:46:43;;;;;;;42.03;22.37;;;;;;;1.17;74.54;97766.97;508018;1101;104386;-40
2021/03/15 03:56:50;;;;;;;38.43;19.17;;;;;;;1.16;75.16;97775.78;508053;1102;104341;-40
2021/03/15 04:06:55;;;;;;;43.93;23.60;;;;;;;1.33;75.26;97783.30;508149;1101;104604;-42
2021/03/15 04:17:01;;;;;;;51.10;25.07;;;;;;;1.45;75.33;97795.62;507752;1101;104721;-41
2021/03/15 04:27:09;;;;;;;36.50;21.10;;;;;;;1.39;74.89;97798.96;507886;1101;104632;-40
2021/03/15 04:37:15;;;;;;;33.60;20.25;;;;;;;1.35;75.21;97799.55;508009;1102;104348;-41
2021/03/15 04:47:21;;;;;;;45.65;24.55;;;;;;;1.36;75.69;97803.75;508176;1101;104348;-42
2021/03/15 04:57:28;;;;;;;29.85;18.70;;;;;;;1.63;75.19;97802.09;507856;1102;104335;-39
2021/03/15 05:07:34;;;;;;;28.43;16.20;;;;;;;1.80;75.70;97803.39;507929;1101;104946;-40
2021/03/15 05:17:40;;;;;;;40.07;20.20;;;;;;;1.75;75.84;97806.59;507847;1101;104373;-42
2021/03/15 05:27:46;;;;;;;32.13;16.97;;;;;;;1.82;75.25;97807.41;508235;1101;104303;-41
2021/03/15 05:37:51;;;;;;;30.77;17.43;;;;;;;1.96;75.29;97797.05;507916;1101;104632;-43
2021/03/15 05:48:09;;;;;;;36.80;19.87;;;;;;;2.14;75.77;97792.11;508273;1102;104392;-42
2021/03/15 05:58:46;;;;;;;46.93;24.07;;;;;;;2.13;75.39;97788.69;508020;1101;104703;-40
2021/03/15 06:09:01;;;;;;;44.10;19.30;;;;;;;2.46;75.59;97787.95;507905;1101;104614;-41
2021/03/15 06:19:07;;;;;;;36.17;21.40;;;;;;;3.48;75.48;97790.13;507943;1101;104383;-42
2021/03/15 06:29:12;;;;;;;58.13;28.67;;;;;;;4.43;74.78;97798.99;507888;1101;104335;-40
2021/03/15 06:39:23;;;;;;;51.33;26.20;;;;;;;4.72;74.36;97792.36;507956;1101;104341;-41
2021/03/15 06:49:30;;;;;;;126.30;55.97;;;;;;;4.39;74.09;97800.43;507871;1101;104344;-41
2021/03/15 06:59:44;;;;;;;32.57;17.53;;;;;;;4.06;73.75;97808.45;507791;1101;104635;-40
2021/03/15 07:09:49;;;;;;;32.43;17.53;;;;;;;3.91;74.00;97821.78;507950;1101;104406;-42
2021/03/15 07:19:54;;;;;;;28.53;15.50;;;;;;;4.06;73.84;97824.16;508026;1100;104402;-40
2021/03/15 07:30:37;;;;;;;29.13;15.73;;;;;;;4.06;73.92;97832.00;507985;1101;104651;-40
2021/03/15 07:40:41;;;;;;;32.97;17.53;;;;;;;3.90;74.11;97828.02;507919;1101;104319;-43
2021/03/15 08:11:35;;;;;;;27.15;16.40;;;;;;;4.93;73.79;97831.30;508101;1102;104348;-40
2021/03/15 08:21:42;;;;;;;49.63;23.00;;;;;;;5.40;73.72;97833.53;508098;1101;104326;-42
2021/03/15 08:31:47;;;;;;;28.85;14.85;;;;;;;5.99;72.62;97830.34;508023;1101;104335;-42
2021/03/15 08:42:25;;;;;;;32.67;17.30;;;;;;;7.14;73.14;97813.61;508060;1101;104335;-41
2021/03/15 08:52:50;;;;;;;25.30;14.03;;;;;;;7.02;71.89;97810.95;507927;1100;104383;-43
2021/03/15 09:02:55;;;;;;;22.67;14.87;;;;;;;7.39;70.66;97806.30;508008;1102;105347;-42
2021/03/15 09:23:41;;;;;;;21.17;14.10;;;;;;;7.60;68.39;97779.41;507940;1102;104686;-42
2021/03/15 09:33:47;;;;;;;14.17;9.60;;;;;;;7.14;66.88;97782.86;508282;1102;104274;-42
2021/03/15 09:43:54;;;;;;;15.23;10.50;;;;;;;7.39;66.23;97777.38;508125;1101;104520;-42
2021/03/15 09:53:59;;;;;;;17.03;10.23;;;;;;;7.33;66.67;97760.69;508023;1102;104701;-41
2021/03/15 10:04:05;;;;;;;22.63;11.00;;;;;;;7.02;65.30;97767.06;507932;1101;104374;-43
2021/03/15 10:14:09;;;;;;;18.67;10.90;;;;;;;6.76;65.95;97752.53;507970;1101;104354;-40
2021/03/15 10:24:14;;;;;;;20.75;11.10;;;;;;;6.55;65.25;97758.31;508026;1102;104338;-41
2021/03/15 10:34:21;;;;;;;22.30;11.20;;;;;;;6.45;65.10;97755.44;508217;1102;104345;-41
2021/03/15 10:44:27;;;;;;;18.63;11.07;;;;;;;6.43;65.37;97744.37;508150;1101;104610;-41
2021/03/15 10:54:30;;;;;;;22.47;13.87;;;;;;;6.48;65.47;97749.73;507849;1101;104633;-42
2021/03/15 11:04:35;;;;;;;19.70;10.10;;;;;;;6.57;64.47;97743.13;508003;1101;104374;-40
2021/03/15 11:14:39;;;;;;;26.63;15.53;;;;;;;6.69;65.12;97728.20;508258;1101;104716;-40
2021/03/15 11:24:44;;;;;;;27.50;14.35;;;;;;;6.86;65.38;97725.71;507892;1101;104501;-40
2021/03/15 11:34:50;;;;;;;14.80;9.67;;;;;;;7.11;65.38;97711.55;507963;1101;105722;-41
2021/03/15 11:44:55;;;;;;;15.60;10.70;;;;;;;7.33;66.15;97708.09;508242;1102;104664;-40
2021/03/15 11:55:01;;;;;;;17.47;11.97;;;;;;;7.38;65.67;97702.13;507765;1101;104261;-42
2021/03/15 12:05:07;;;;;;;23.10;13.37;;;;;;;7.21;64.73;97686.27;508011;1102;104740;-42
2021/03/15 12:15:14;;;;;;;17.20;11.20;;;;;;;7.38;64.97;97676.63;507932;1101;104459;-42
2021/03/15 12:25:41;;;;;;;16.43;11.23;;;;;;;7.62;64.71;97668.69;508283;1101;104331;-40
2021/03/15 12:35:45;;;;;;;21.90;12.67;;;;;;;7.81;64.10;97659.58;507999;1101;105523;-44
2021/03/15 12:45:51;;;;;;;22.07;12.93;;;;;;;7.81;64.03;97664.84;508002;1101;104659;-40
2021/03/15 12:55:57;;;;;;;23.10;13.07;;;;;;;7.54;63.97;97667.20;507929;1101;104328;-40
2021/03/15 13:06:01;;;;;;;29.10;16.60;;;;;;;7.41;64.33;97664.84;507917;1101;104716;-42
2021/03/15 13:16:07;;;;;;;18.23;12.83;;;;;;;7.51;64.35;97672.12;508016;1102;104258;-42
2021/03/15 13:26:12;;;;;;;25.37;12.27;;;;;;;7.81;63.58;97674.57;508017;1102;104807;-43
2021/03/15 13:36:18;;;;;;;36.03;20.17;;;;;;;7.70;63.51;97676.99;507992;1101;105412;-40
2021/03/15 13:46:22;;;;;;;17.97;10.83;;;;;;;7.81;62.95;97664.84;508026;1102;104429;-41
2021/03/15 13:56:27;;;;;;;12.80;7.77;;;;;;;7.64;61.57;97667.41;508029;1102;104364;-41
2021/03/15 14:06:32;;;;;;;24.90;15.75;;;;;;;7.53;61.99;97659.54;508075;1101;104389;-42
2021/03/15 14:16:37;;;;;;;14.70;9.63;;;;;;;7.49;61.05;97669.73;508036;1101;104717;-41
2021/03/15 14:26:42;;;;;;;15.63;9.50;;;;;;;7.34;62.08;97678.13;508024;1102;104358;-43
2021/03/15 14:36:47;;;;;;;14.00;8.40;;;;;;;7.27;61.43;97666.92;508109;1102;104344;-41
2021/03/15 14:46:52;;;;;;;12.63;7.50;;;;;;;7.31;61.93;97668.05;508075;1102;104402;-41
2021/03/15 14:56:57;;;;;;;17.57;11.03;;;;;;;7.33;61.86;97662.56;508207;1101;104395;-41
2021/03/15 15:07:01;;;;;;;17.00;9.93;;;;;;;7.36;62.22;97655.03;508067;1102;104361;-43
2021/03/15 15:17:06;;;;;;;31.40;23.97;;;;;;;7.36;61.16;97651.60;507899;1101;104830;-42
2021/03/15 15:27:11;;;;;;;10.40;7.20;;;;;;;7.29;61.77;97656.17;508153;1101;104459;-42
2021/03/15 15:37:16;;;;;;;10.40;6.25;;;;;;;7.07;61.22;97650.72;507895;1101;104923;-42
2021/03/15 15:47:20;;;;;;;16.15;11.20;;;;;;;6.89;60.98;97656.13;507872;1101;104392;-42
2021/03/15 15:57:26;;;;;;;24.00;13.53;;;;;;;6.70;60.88;97653.61;507895;1101;104382;-42
2021/03/15 16:07:31;;;;;;;27.57;14.87;;;;;;;6.48;61.27;97657.02;507961;1101;104683;-43
2021/03/15 16:17:50;;;;;;;28.25;14.68;;;;;;;6.21;61.01;97661.89;507864;1101;104666;-42
2021/03/15 16:27:55;;;;;;;57.77;30.00;;;;;;;5.91;61.17;97675.81;508076;1100;104326;-41
2021/03/15 16:38:01;;;;;;;88.17;43.43;;;;;;;5.61;61.78;97675.78;508121;1101;104261;-41
2021/03/15 16:48:08;;;;;;;72.57;30.97;;;;;;;5.18;62.01;97676.67;508038;1101;104820;-42
2021/03/15 16:58:13;;;;;;;41.33;20.10;;;;;;;4.79;62.03;97684.95;507949;1101;104380;-40
2021/03/15 17:08:18;;;;;;;63.17;28.03;;;;;;;4.34;62.34;97687.73;507846;1101;104328;-40
2021/03/15 17:18:23;;;;;;;119.77;51.33;;;;;;;3.77;62.65;97694.70;507850;1101;104412;-39
2021/03/15 17:28:28;;;;;;;145.90;57.27;;;;;;;3.46;63.21;97692.03;508159;1102;104701;-40
2021/03/15 17:38:34;;;;;;;220.60;85.97;;;;;;;3.15;63.94;97703.98;508041;1101;104405;-42
2021/03/15 17:48:40;;;;;;;176.57;74.20;;;;;;;2.97;64.04;97702.01;508039;1101;104338;-42
2021/03/15 17:58:45;;;;;;;206.07;91.13;;;;;;;2.74;64.64;97717.30;507867;1102;104332;-41
2021/03/15 18:08:50;;;;;;;271.80;113.30;;;;;;;2.39;64.90;97712.30;508060;1102;104405;-40
2021/03/15 18:19:03;;;;;;;239.90;104.40;;;;;;;2.17;65.53;97716.08;507915;1101;104389;-42
2021/03/15 18:29:08;;;;;;;236.43;109.50;;;;;;;2.02;65.65;97720.65;508050;1101;104877;-40
2021/03/15 18:39:13;;;;;;;294.83;132.07;;;;;;;1.90;66.09;97732.66;508114;1101;104309;-44
2021/03/15 18:49:19;;;;;;;443.17;198.27;;;;;;;1.65;66.05;97732.35;508187;1101;104370;-41
2021/03/15 18:59:25;;;;;;;474.93;223.47;;;;;;;1.49;66.11;97723.09;507922;1102;104384;-41
2021/03/15 19:09:31;;;;;;;380.80;181.60;;;;;;;1.48;66.76;97724.09;508063;1101;104400;-40
2021/03/15 19:19:36;;;;;;;510.40;223.30;;;;;;;1.21;67.06;97729.17;508124;1101;104377;-40
2021/03/15 19:29:41;;;;;;;427.00;184.45;;;;;;;1.13;67.27;97728.50;507889;1101;104334;-40
2021/03/15 19:39:46;;;;;;;486.03;208.07;;;;;;;1.12;68.00;97732.90;507939;1101;104342;-41
2021/03/15 19:49:51;;;;;;;484.70;209.73;;;;;;;1.20;68.21;97735.38;507964;1101;104259;-42
2021/03/15 19:59:56;;;;;;;432.73;187.70;;;;;;;1.20;68.28;97740.58;507782;1101;104451;-42
2021/03/15 20:10:01;;;;;;;546.13;231.03;;;;;;;1.01;68.51;97732.64;507887;1101;104315;-40
2021/03/15 20:20:06;;;;;;;466.90;204.65;;;;;;;0.82;68.68;97736.71;507987;1102;104309;-40
2021/03/15 20:30:12;;;;;;;455.23;202.03;;;;;;;0.75;69.07;97748.88;507977;1101;104877;-40
2021/03/15 20:40:19;;;;;;;534.77;236.80;;;;;;;0.73;69.06;97748.27;507873;1101;104676;-42
2021/03/15 21:00:44;;;;;;;427.75;179.15;;;;;;;0.56;69.36;97752.92;508017;1101;104743;-41
2021/03/15 21:10:49;;;;;;;437.90;167.67;;;;;;;0.60;70.08;97757.56;507809;1100;104335;-40
2021/03/15 21:20:54;;;;;;;476.33;179.83;;;;;;;0.64;70.04;97759.78;507905;1101;104351;-41
2021/03/15 21:30:58;;;;;;;474.23;178.63;;;;;;;0.72;70.44;97752.66;507845;1101;104339;-39
2021/03/15 21:41:03;;;;;;;390.33;145.37;;;;;;;0.87;70.87;97747.35;507697;1101;104335;-41
2021/03/15 21:51:09;;;;;;;349.67;133.87;;;;;;;1.01;70.39;97736.05;507920;1102;104705;-40
2021/03/15 22:01:14;;;;;;;335.33;132.80;;;;;;;1.10;71.14;97742.70;507982;1102;104626;-43
2021/03/15 22:11:19;;;;;;;324.27;125.90;;;;;;;1.20;70.78;97743.18;508400;1101;105396;-40
2021/03/15 22:21:24;;;;;;;311.77;123.93;;;;;;;1.26;70.64;97744.20;507850;1101;104351;-40
2021/03/15 22:31:29;;;;;;;239.60;99.60;;;;;;;1.35;71.05;97747.45;507981;1101;104338;-40
2021/03/15 22:51:54;;;;;;;271.97;113.00;;;;;;;1.36;71.65;97734.23;508040;1101;104639;-42
2021/03/15 23:01:59;;;;;;;264.37;101.37;;;;;;;1.36;71.39;97730.83;507846;1101;104351;-41
2021/03/15 23:12:07;;;;;;;283.80;114.13;;;;;;;1.37;71.40;97745.45;507942;1101;104711;-41
2021/03/15 23:22:14;;;;;;;212.20;87.07;;;;;;;1.43;71.78;97755.13;507875;1101;104335;-41
2021/03/15 23:32:18;;;;;;;236.57;98.40;;;;;;;1.22;72.00;97761.22;507857;1101;105484;-43
2021/03/15 23:42:23;;;;;;;239.60;94.27;;;;;;;1.16;71.48;97770.57;507901;1102;104335;-41
2021/03/15 23:52:28;;;;;;;180.07;79.70;;;;;;;1.20;71.28;97766.62;507923;1102;104335;-41
